Time;durP1;ratioP1;P1;durP2;ratioP2;P2;SDS_P1;SDS_P2;PMS_P1;PMS_P2;Temp;Humidity;BMP_temperature;BMP_pressure;BME280_temperature;BME280_humidity;BME280_pressure;Samples;Min_cycle;Max_cycle;Signal;HPM_P1;HPM_P2
2023/12/05 00:01:43;;;;;;;;;;;;;;;-5.81;100.00;102014.44;4926093;29;20070;-75
2023/12/05 00:04:10;;;;;;;66.35;62.40;;;;;;;-5.86;100.00;102005.19;4931800;29;19923;-75
2023/12/05 00:06:38;;;;;;;64.07;60.40;;;;;;;-5.70;100.00;102003.59;4931309;29;20051;-75
2023/12/05 00:09:06;;;;;;;69.43;65.53;;;;;;;-5.87;100.00;101993.16;4930862;29;20047;-75
2023/12/05 00:11:34;;;;;;;67.40;63.35;;;;;;;-5.81;100.00;102004.09;4928840;29;20048;-75
2023/12/05 00:14:41;;;;;;;69.07;65.28;;;;;;;-5.91;100.00;102000.22;4930181;29;20044;-75
2023/12/05 00:17:09;;;;;;;68.18;64.57;;;;;;;-5.99;100.00;102010.09;4926240;29;20071;-75
2023/12/05 00:19:36;;;;;;;71.32;67.53;;;;;;;-5.91;100.00;102004.56;4927176;29;20055;-75
2023/12/05 00:22:18;;;;;;;73.55;69.63;;;;;;;-5.97;100.00;102002.28;4928958;29;20044;-75
2023/12/05 00:24:45;;;;;;;;;;;;;;;-5.96;100.00;101997.03;4925951;29;20475;-75
2023/12/05 00:27:12;;;;;;;57.53;54.30;;;;;;;-6.04;100.00;101999.94;4931493;29;19927;-75
2023/12/05 00:29:48;;;;;;;50.60;47.80;;;;;;;-5.96;100.00;102001.34;4927926;29;20512;-75
2023/12/05 00:32:15;;;;;;;83.00;78.15;;;;;;;-5.95;100.00;102008.22;4930253;29;20519;-75
2023/12/05 00:34:45;;;;;;;27.75;25.85;;;;;;;-5.98;100.00;101995.44;4932137;29;20455;-75
2023/12/05 00:37:12;;;;;;;35.67;33.25;;;;;;;-5.96;100.00;101996.19;4932214;29;20055;-75
2023/12/05 00:39:42;;;;;;;24.35;22.75;;;;;;;-5.82;100.00;101994.63;4929231;29;20063;-75
2023/12/05 00:42:09;;;;;;;40.92;38.42;;;;;;;-6.02;100.00;101992.09;4931821;29;20054;-76
2023/12/05 00:44:43;;;;;;;31.35;29.35;;;;;;;-6.25;100.00;101988.78;4931665;29;20058;-75
2023/12/05 00:47:10;;;;;;;32.72;30.42;;;;;;;-6.19;100.00;101986.84;4928079;29;20047;-75
2023/12/05 00:49:46;;;;;;;27.23;25.42;;;;;;;-6.01;100.00;101984.28;4928987;29;20051;-75
2023/12/05 00:52:13;;;;;;;29.85;27.70;;;;;;;-6.00;100.00;101985.97;4929921;29;20048;-75
2023/12/05 00:54:41;;;;;;;33.83;31.73;;;;;;;-5.76;100.00;101985.75;4927874;29;20051;-75
2023/12/05 00:57:15;;;;;;;30.38;28.58;;;;;;;-6.03;100.00;101977.50;4921242;29;20048;-76
2023/12/05 00:59:42;;;;;;;32.47;30.58;;;;;;;-6.00;100.00;101970.44;4931413;29;20136;-75
2023/12/05 01:02:09;;;;;;;39.00;35.72;;;;;;;-6.07;100.00;101975.97;4923355;29;20432;-75
2023/12/05 01:04:36;;;;;;;28.83;27.02;;;;;;;-6.21;100.00;101971.38;4926858;29;20090;-75
2023/12/05 01:07:05;;;;;;;30.38;28.40;;;;;;;-6.02;100.00;101963.66;4933830;29;20459;-75
2023/12/05 01:09:32;;;;;;;31.88;29.67;;;;;;;-5.97;100.00;101961.72;4932237;29;20051;-75
2023/12/05 01:12:30;;;;;;;30.25;28.40;;;;;;;-5.90;100.00;101954.47;4937280;29;20147;-75
2023/12/05 01:14:58;;;;;;;34.70;32.50;;;;;;;-6.11;100.00;101949.41;4934167;29;20055;-75
2023/12/05 01:17:35;;;;;;;35.70;33.47;;;;;;;-6.07;100.00;101953.53;4935316;29;20048;-75
2023/12/05 01:20:06;;;;;;;34.33;31.80;;;;;;;-6.10;100.00;101945.91;4933993;29;20110;-75
2023/12/05 01:22:33;;;;;;;37.45;35.15;;;;;;;-6.25;100.00;101944.81;4934837;29;20436;-75
2023/12/05 01:25:12;;;;;;;32.63;30.58;;;;;;;-6.21;100.00;101940.34;4934097;29;20508;-75
2023/12/05 01:27:41;;;;;;;32.72;30.58;;;;;;;-6.03;100.00;101944.69;4934890;29;20051;-75
2023/12/05 01:30:09;;;;;;;32.05;29.85;;;;;;;-5.96;100.00;101936.66;4934627;29;20051;-75
2023/12/05 01:32:36;;;;;;;28.25;26.48;;;;;;;-6.00;100.00;101936.81;4930482;29;20052;-75
2023/12/05 01:35:03;;;;;;;35.65;33.45;;;;;;;-5.78;100.00;101939.25;4926081;29;20432;-75
2023/12/05 01:37:32;;;;;;;29.83;28.02;;;;;;;-5.65;100.00;101933.50;4935098;29;20452;-76
2023/12/05 01:39:59;;;;;;;32.95;30.02;;;;;;;-5.63;100.00;101934.25;4931873;29;20055;-75
2023/12/05 01:42:26;;;;;;;31.35;29.25;;;;;;;-5.66;100.00;101929.22;4934490;29;20135;-71
2023/12/05 01:44:55;;;;;;;33.97;31.88;;;;;;;-5.74;100.00;101927.00;4932900;29;20447;-72
2023/12/05 01:47:22;;;;;;;33.03;30.85;;;;;;;-5.46;100.00;101930.88;4933699;29;20059;-72
2023/12/05 01:49:50;;;;;;;32.22;30.13;;;;;;;-5.53;100.00;101923.41;4928883;29;20059;-71
2023/12/05 01:52:18;;;;;;;28.70;26.80;;;;;;;-5.52;100.00;101921.66;4933834;29;20079;-71
2023/12/05 01:54:52;;;;;;;32.95;30.75;;;;;;;-5.36;100.00;101920.00;4922919;29;20059;-71
2023/12/05 01:57:24;;;;;;;39.97;37.28;;;;;;;-5.39;100.00;101912.38;4921300;29;20591;-71
2023/12/05 01:59:54;;;;;;;29.98;28.05;;;;;;;-5.42;100.00;101906.50;4930585;29;20083;-71
2023/12/05 02:02:24;;;;;;;31.60;29.00;;;;;;;-5.33;100.00;101901.72;4928716;29;20130;-71
2023/12/05 02:04:51;;;;;;;30.23;28.20;;;;;;;-5.39;100.00;101898.59;4931524;29;20056;-71
2023/12/05 02:07:18;;;;;;;32.28;29.70;;;;;;;-5.42;100.00;101906.50;4934657;29;20456;-71
2023/12/05 02:09:46;;;;;;;33.35;30.92;;;;;;;-5.50;100.00;101895.69;4927605;29;20448;-71
2023/12/05 02:12:14;;;;;;;28.95;27.05;;;;;;;-5.66;100.00;101891.22;4931861;29;20444;-71
2023/12/05 02:14:42;;;;;;;29.70;27.85;;;;;;;-5.68;100.00;101885.28;4924744;29;20056;-72
2023/12/05 02:17:20;;;;;;;38.08;35.53;;;;;;;-5.42;100.00;101871.09;4932908;29;20048;-71
2023/12/05 02:20:06;;;;;;;34.65;32.65;;;;;;;-5.91;100.00;101868.25;4931921;29;20055;-71
2023/12/05 02:22:57;;;;;;;36.38;33.67;;;;;;;-5.33;100.00;101865.44;4930317;29;20440;-71
2023/12/05 02:25:39;;;;;;;29.10;27.30;;;;;;;-5.58;100.00;101854.63;4918459;29;20055;-71
2023/12/05 02:28:10;;;;;;;29.98;28.08;;;;;;;-5.76;100.00;101853.75;4923230;29;20439;-71
2023/12/05 02:30:37;;;;;;;33.63;31.63;;;;;;;-5.76;100.00;101859.75;4931338;29;20079;-75
2023/12/05 02:33:04;;;;;;;36.90;34.38;;;;;;;-5.58;100.00;101850.28;4933660;29;20055;-75
2023/12/05 02:35:32;;;;;;;28.50;26.70;;;;;;;-5.60;100.00;101846.09;4932902;29;20052;-72
2023/12/05 02:38:07;;;;;;;30.70;28.60;;;;;;;-5.61;100.00;101840.06;4934293;29;20140;-75
2023/12/05 02:40:40;;;;;;;37.88;34.70;;;;;;;-5.67;100.00;101842.97;4931095;29;20440;-71
2023/12/05 02:43:13;;;;;;;29.52;27.33;;;;;;;-5.73;100.00;101848.44;4919895;29;20051;-71
2023/12/05 02:45:41;;;;;;;33.55;31.42;;;;;;;-5.37;100.00;101843.22;4933962;29;20118;-71
2023/12/05 02:48:12;;;;;;;35.97;33.55;;;;;;;-5.19;100.00;101845.81;4933991;29;20151;-71
2023/12/05 02:50:39;;;;;;;34.20;32.10;;;;;;;-5.32;100.00;101836.06;4932716;29;20055;-71
2023/12/05 02:53:06;;;;;;;37.72;35.03;;;;;;;-5.11;100.00;101841.94;4930320;29;20047;-75
2023/12/05 02:55:33;;;;;;;35.05;32.72;;;;;;;-4.96;100.00;101840.31;4933608;29;20070;-71
2023/12/05 02:58:00;;;;;;;39.47;36.97;;;;;;;-5.13;100.00;101829.97;4927558;29;20428;-76
2023/12/05 03:00:28;;;;;;;37.00;34.70;;;;;;;-5.18;100.00;101832.78;4929451;29;20444;-75
2023/12/05 03:03:02;;;;;;;35.88;33.67;;;;;;;-4.91;100.00;101830.53;4929746;29;20062;-75
2023/12/05 03:05:29;;;;;;;31.15;29.15;;;;;;;-5.35;100.00;101830.22;4929351;29;20949;-71
2023/12/05 03:07:58;;;;;;;28.60;26.70;;;;;;;-5.00;100.00;101828.41;4933374;29;20519;-71
2023/12/05 03:10:26;;;;;;;29.10;27.00;;;;;;;-4.63;100.00;101829.97;4930301;29;20063;-75
2023/12/05 03:13:08;;;;;;;31.23;29.23;;;;;;;-4.39;100.00;101833.03;4941858;29;20052;-75
2023/12/05 03:15:45;;;;;;;35.92;33.55;;;;;;;-4.10;100.00;101827.16;4933755;29;20062;-75
2023/12/05 03:18:12;;;;;;;30.27;28.27;;;;;;;-4.37;100.00;101828.56;4932485;29;20481;-76
2023/12/05 03:20:38;;;;;;;30.98;28.98;;;;;;;-4.29;100.00;101822.97;4931476;29;20066;-75
2023/12/05 03:23:05;;;;;;;36.88;34.58;;;;;;;-4.04;100.00;101825.06;4925303;29;20052;-71
2023/12/05 03:25:32;;;;;;;42.33;39.58;;;;;;;-4.33;100.00;101815.44;4933224;29;20051;-71
2023/12/05 03:27:59;;;;;;;35.35;32.92;;;;;;;-4.09;100.00;101813.25;4932034;29;20052;-71
2023/12/05 03:30:26;;;;;;;47.83;44.92;;;;;;;-4.05;100.00;101796.63;4933111;29;20479;-71
2023/12/05 03:32:54;;;;;;;58.30;54.92;;;;;;;-4.23;100.00;101804.47;4932000;29;20048;-71
2023/12/05 03:35:22;;;;;;;65.20;61.30;;;;;;;-4.26;100.00;101796.03;4930850;29;20074;-72
2023/12/05 03:37:49;;;;;;;54.25;51.03;;;;;;;-3.92;100.00;101797.59;4933275;29;20437;-71
2023/12/05 03:40:16;;;;;;;43.97;41.30;;;;;;;-3.83;100.00;101791.06;4923748;29;20511;-71
2023/12/05 03:42:43;;;;;;;36.53;34.33;;;;;;;-3.55;100.00;101790.31;4933014;29;20444;-75
2023/12/05 03:45:10;;;;;;;46.83;44.20;;;;;;;-3.69;100.00;101788.53;4933344;29;20052;-75
2023/12/05 03:47:37;;;;;;;42.35;39.95;;;;;;;-3.75;100.00;101778.47;4933036;29;20058;-71
2023/12/05 03:50:06;;;;;;;33.72;31.63;;;;;;;-3.75;100.00;101784.50;4917124;29;20048;-71
2023/12/05 03:52:33;;;;;;;39.00;36.60;;;;;;;-3.95;100.00;101777.00;4929548;29;20520;-71
2023/12/05 03:55:00;;;;;;;38.13;35.72;;;;;;;-3.80;100.00;101776.13;4932723;29;20060;-71
2023/12/05 03:57:27;;;;;;;42.63;39.60;;;;;;;-3.58;100.00;101782.69;4932159;29;20082;-72
2023/12/05 03:59:54;;;;;;;44.55;41.85;;;;;;;-3.49;100.00;101787.38;4928050;29;20048;-71
2023/12/05 04:02:24;;;;;;;38.60;36.08;;;;;;;-3.73;100.00;101781.81;4922509;29;20048;-72
2023/12/05 04:04:51;;;;;;;34.45;32.15;;;;;;;-3.53;100.00;101785.88;4918835;29;20064;-72
2023/12/05 04:07:20;;;;;;;41.88;39.17;;;;;;;-3.53;100.00;101788.47;4932690;29;20059;-71
2023/12/05 04:09:48;;;;;;;36.50;34.22;;;;;;;-3.74;100.00;101799.16;4931578;29;20066;-71
2023/12/05 04:12:15;;;;;;;37.72;35.28;;;;;;;-3.41;100.00;101789.53;4927320;29;20500;-71
2023/12/05 04:14:42;;;;;;;40.60;38.05;;;;;;;-3.35;100.00;101797.78;4931923;29;20632;-72
2023/12/05 04:17:10;;;;;;;33.30;30.95;;;;;;;-3.19;100.00;101797.72;4927935;29;20107;-71
2023/12/05 04:19:37;;;;;;;37.45;34.38;;;;;;;-3.34;100.00;101796.88;4927558;29;20516;-72
2023/12/05 04:22:05;;;;;;;39.70;37.17;;;;;;;-3.41;100.00;101802.53;4931365;29;20086;-70
2023/12/05 04:24:33;;;;;;;34.00;31.73;;;;;;;-3.26;100.00;101797.25;4918368;29;20075;-71
2023/12/05 04:27:00;;;;;;;36.05;33.50;;;;;;;-3.22;100.00;101801.34;4930985;29;20058;-71
2023/12/05 04:29:27;;;;;;;41.25;38.55;;;;;;;-3.09;100.00;101809.25;4929384;29;20415;-72
2023/12/05 04:32:02;;;;;;;33.22;30.92;;;;;;;-3.10;100.00;101807.59;4925234;29;20062;-71
2023/12/05 04:34:29;;;;;;;33.78;31.13;;;;;;;-3.10;100.00;101807.59;4929736;29;20059;-71
2023/12/05 04:36:56;;;;;;;34.22;31.92;;;;;;;-3.24;100.00;101805.81;4931052;29;20863;-71
2023/12/05 04:39:22;;;;;;;33.55;30.75;;;;;;;-3.11;100.00;101807.69;4931108;29;20055;-71
2023/12/05 04:41:54;;;;;;;34.92;32.63;;;;;;;-3.11;100.00;101808.50;4931844;29;20078;-71
2023/12/05 04:44:21;;;;;;;33.08;30.95;;;;;;;-2.86;100.00;101810.47;4931025;29;20050;-71
2023/12/05 04:46:49;;;;;;;24.33;22.25;;;;;;;-2.97;100.00;101818.06;4928342;29;20057;-71
2023/12/05 04:49:16;;;;;;;24.17;22.40;;;;;;;-2.87;100.00;101815.78;4928271;29;20524;-71
2023/12/05 04:51:43;;;;;;;24.90;23.02;;;;;;;-3.20;100.00;101803.88;4920660;29;20052;-72
2023/12/05 04:54:10;;;;;;;27.60;25.40;;;;;;;-3.00;100.00;101800.06;4931715;29;20616;-71
2023/12/05 04:56:37;;;;;;;27.70;25.33;;;;;;;-2.86;100.00;101797.47;4928227;29;20512;-71
2023/12/05 04:59:06;;;;;;;28.50;26.50;;;;;;;-2.70;100.00;101801.75;4931369;29;20066;-73
2023/12/05 05:01:33;;;;;;;33.38;30.77;;;;;;;2.36;100.00;101791.72;4932132;29;20107;-72
2023/12/05 05:04:00;;;;;;;33.53;30.92;;;;;;;-2.32;100.00;101792.41;4926240;29;20911;-76
2023/12/05 05:06:35;;;;;;;32.05;28.92;;;;;;;-2.94;100.00;101785.88;4921401;29;20512;-76
2023/12/05 05:09:02;;;;;;;29.90;27.92;;;;;;;-2.86;100.00;101797.47;4929979;29;20500;-72
2023/12/05 05:11:29;;;;;;;29.73;27.17;;;;;;;-2.69;100.00;101796.47;4931209;29;20571;-76
2023/12/05 05:13:56;;;;;;;24.17;22.15;;;;;;;-2.66;100.00;101779.81;4918803;29;20051;-72
2023/12/05 05:16:25;;;;;;;24.73;22.77;;;;;;;-2.82;100.00;101780.75;4929735;29;20063;-72
2023/12/05 05:18:56;;;;;;;23.50;21.77;;;;;;;-2.65;100.00;101779.75;4919433;29;20433;-71
2023/12/05 05:21:23;;;;;;;24.92;23.02;;;;;;;-2.84;100.00;101769.63;4928131;29;20052;-71
2023/12/05 05:23:52;;;;;;;32.58;24.02;;;;;;;-3.16;100.00;101763.75;4894816;28;20055;-72
2023/12/05 05:26:18;;;;;;;25.67;23.52;;;;;;;-3.16;100.00;101763.75;4936132;28;20142;-71
2023/12/05 05:28:45;;;;;;;26.10;24.15;;;;;;;-3.32;100.00;101769.03;4918844;29;20074;-72
2023/12/05 05:31:12;;;;;;;25.17;23.50;;;;;;;-3.16;100.00;101774.16;4912687;29;20508;-72
2023/12/05 05:33:41;;;;;;;22.85;21.40;;;;;;;-3.13;100.00;101766.19;4927554;29;20443;-76
2023/12/05 05:36:09;;;;;;;22.00;20.58;;;;;;;-3.13;100.00;101775.75;4940020;29;20063;-76
2023/12/05 05:38:37;;;;;;;24.42;22.70;;;;;;;-3.15;100.00;101780.19;4935952;29;20475;-76
2023/12/05 05:41:06;;;;;;;24.17;22.10;;;;;;;-3.01;100.00;101772.41;4927013;29;20058;-72
2023/12/05 05:43:42;;;;;;;21.75;19.88;;;;;;;-3.00;100.00;101780.09;4931412;29;20055;-76
2023/12/05 05:46:09;;;;;;;21.33;19.90;;;;;;;-3.12;100.00;101773.03;4936458;29;20113;-76
2023/12/05 05:48:36;;;;;;;23.00;21.50;;;;;;;-3.01;100.00;101780.22;4950096;28;20053;-76
2023/12/05 05:51:06;;;;;;;22.20;20.55;;;;;;;-3.10;100.00;101778.16;4920695;29;20058;-76
2023/12/05 05:53:34;;;;;;;21.73;20.33;;;;;;;-3.07;100.00;101778.81;4927147;29;20052;-76
2023/12/05 05:56:02;;;;;;;21.80;20.05;;;;;;;-3.03;100.00;101772.47;4919490;29;20793;-76
2023/12/05 05:58:29;;;;;;;21.75;20.35;;;;;;;-2.89;100.00;101766.47;4923697;29;20134;-76
2023/12/05 06:00:58;;;;;;;19.75;18.58;;;;;;;-3.04;100.00;101763.03;4918398;29;20520;-76
2023/12/05 06:03:34;;;;;;;20.75;19.52;;;;;;;-3.05;100.00;101755.34;4926150;29;20447;-76
2023/12/05 06:06:02;;;;;;;21.63;20.13;;;;;;;-3.00;100.00;101764.50;4929175;29;20060;-76
2023/12/05 06:08:42;;;;;;;22.50;20.90;;;;;;;-2.88;100.00;101762.09;4935395;29;20138;-76
2023/12/05 06:11:09;;;;;;;21.75;20.20;;;;;;;-2.53;100.00;101754.75;4917855;29;20747;-76
2023/12/05 06:13:36;;;;;;;25.73;24.00;;;;;;;0.48;100.00;101749.75;4932611;29;20048;-76
2023/12/05 06:16:03;;;;;;;24.52;22.90;;;;;;;-1.88;100.00;101741.03;4932078;29;20521;-76
2023/12/05 06:18:30;;;;;;;27.77;25.52;;;;;;;-1.87;100.00;101733.16;4932900;29;20047;-76
2023/12/05 06:20:58;;;;;;;25.80;23.13;;;;;;;-2.56;100.00;101745.34;4921703;29;20056;-75
2023/12/05 06:23:34;;;;;;;24.75;22.98;;;;;;;-2.11;100.00;101745.97;4927384;29;20056;-76
2023/12/05 06:26:03;;;;;;;25.15;23.45;;;;;;;-2.07;100.00;101747.44;4934049;29;20523;-75
2023/12/05 06:28:30;;;;;;;27.73;25.42;;;;;;;-1.25;100.00;101745.50;4931541;29;20090;-75
2023/12/05 06:30:57;;;;;;;25.55;23.70;;;;;;;-0.48;100.00;101750.66;4933601;29;20060;-76
2023/12/05 06:33:24;;;;;;;27.48;24.70;;;;;;;-0.78;100.00;101738.81;4935759;29;20047;-76
2023/12/05 06:35:54;;;;;;;26.98;25.17;;;;;;;-0.39;100.00;101736.09;4929200;29;20051;-75
2023/12/05 06:38:22;;;;;;;30.23;28.02;;;;;;;-0.35;100.00;101725.31;4937887;29;20047;-76
2023/12/05 06:40:49;;;;;;;29.65;27.65;;;;;;;-0.26;100.00;101727.28;4917119;29;20064;-75
2023/12/05 06:43:17;;;;;;;31.65;28.77;;;;;;;0.07;100.00;101714.50;4920908;29;20043;-75
2023/12/05 06:45:44;;;;;;;27.05;25.15;;;;;;;0.03;100.00;101723.47;4943754;29;20055;-75
2023/12/05 06:48:12;;;;;;;28.58;26.45;;;;;;;0.29;100.00;101719.78;4922149;29;20052;-72
2023/12/05 06:50:47;;;;;;;31.48;29.02;;;;;;;0.62;100.00;101712.97;4918993;29;20083;-72
2023/12/05 06:53:14;;;;;;;33.40;30.52;;;;;;;0.07;100.00;101701.44;4918638;29;20185;-72
2023/12/05 06:55:42;;;;;;;31.50;29.30;;;;;;;-0.28;100.00;101691.78;4929580;29;20503;-72
2023/12/05 06:58:10;;;;;;;31.83;29.73;;;;;;;-0.23;100.00;101694.91;4929210;29;20050;-72
2023/12/05 07:00:38;;;;;;;27.92;26.00;;;;;;;-0.17;100.00;101691.00;4939741;29;20063;-72
2023/12/05 07:03:05;;;;;;;27.30;25.30;;;;;;;-0.01;100.00;101686.31;4923450;29;20047;-72
2023/12/05 07:05:32;;;;;;;25.92;24.27;;;;;;;-0.03;100.00;101676.00;4928536;29;20060;-72
2023/12/05 07:08:00;;;;;;;26.20;24.50;;;;;;;0.47;100.00;101673.13;4925518;29;20066;-72
2023/12/05 07:10:27;;;;;;;29.40;27.40;;;;;;;0.95;100.00;101666.84;4943267;29;20070;-72
2023/12/05 07:12:54;;;;;;;28.17;25.20;;;;;;;1.38;100.00;101662.50;4918429;29;20063;-74
2023/12/05 07:15:26;;;;;;;27.30;25.40;;;;;;;1.79;100.00;101654.88;4933255;29;20051;-75
2023/12/05 07:17:55;;;;;;;28.27;26.27;;;;;;;2.68;100.00;101644.78;4926750;29;20104;-72
2023/12/05 07:20:23;;;;;;;31.92;29.08;;;;;;;2.54;100.00;101645.94;4932567;29;20307;-72
2023/12/05 07:23:02;;;;;;;28.52;26.10;;;;;;;2.66;100.00;101634.44;4947348;28;20631;-72
2023/12/05 07:25:30;;;;;;;26.75;24.70;;;;;;;2.46;100.00;101636.13;4939088;29;20062;-72
2023/12/05 07:27:57;;;;;;;27.60;25.60;;;;;;;2.86;100.00;101637.13;4932911;29;20059;-72
2023/12/05 07:30:26;;;;;;;30.77;28.77;;;;;;;2.78;100.00;101622.03;4923990;29;20074;-72
2023/12/05 07:32:54;;;;;;;31.20;29.13;;;;;;;3.57;100.00;101619.44;4938948;28;20115;-73
2023/12/05 07:35:21;;;;;;;32.17;29.60;;;;;;;3.32;100.00;101625.19;4932523;29;20048;-72
2023/12/05 07:37:49;;;;;;;33.65;30.45;;;;;;;3.44;100.00;101629.38;4952766;29;20058;-72
2023/12/05 07:40:16;;;;;;;30.95;28.73;;;;;;;4.31;100.00;101623.22;4930679;29;20047;-72
2023/12/05 07:42:44;;;;;;;27.80;25.85;;;;;;;4.00;100.00;101633.09;4949256;29;20121;-72
2023/12/05 07:45:13;;;;;;;26.27;24.48;;;;;;;4.26;100.00;101628.88;4933241;29;20059;-75
2023/12/05 07:47:42;;;;;;;32.13;29.67;;;;;;;4.10;100.00;101618.13;4950060;28;20047;-75
2023/12/05 07:50:13;;;;;;;28.90;27.00;;;;;;;4.01;100.00;101625.06;4952305;29;20071;-75
2023/12/05 07:52:41;;;;;;;40.95;37.92;;;;;;;4.22;100.00;101629.31;4940343;29;20056;-75
2023/12/05 07:55:08;;;;;;;34.20;30.55;;;;;;;1.92;100.00;101641.59;4929715;29;20060;-75
2023/12/05 07:57:43;;;;;;;41.33;38.72;;;;;;;1.57;100.00;101653.16;4918902;29;20056;-75
2023/12/05 08:00:16;;;;;;;40.92;38.35;;;;;;;2.19;100.00;101656.81;4933012;29;20127;-74
2023/12/05 08:02:48;;;;;;;;;;;;;;;3.29;100.00;101657.00;4933144;29;20052;-75
2023/12/05 08:05:18;;;;;;;31.95;29.75;;;;;;;2.49;100.00;101654.22;4932782;29;19929;-75
2023/12/05 08:07:45;;;;;;;33.53;31.33;;;;;;;3.55;100.00;101652.88;4952687;28;20066;-75
2023/12/05 08:10:12;;;;;;;34.10;31.70;;;;;;;3.96;100.00;101645.69;4936061;29;20894;-75
2023/12/05 08:12:39;;;;;;;29.90;27.48;;;;;;;4.29;100.00;101646.19;4934225;29;20059;-75
2023/12/05 08:15:30;;;;;;;33.03;30.92;;;;;;;4.40;100.00;101627.63;4935451;29;20051;-75
2023/12/05 08:17:58;;;;;;;29.17;27.38;;;;;;;4.17;100.00;101632.38;4936185;29;20653;-75
2023/12/05 08:20:37;;;;;;;30.35;28.45;;;;;;;3.74;100.00;101625.78;4924797;29;20512;-75
2023/12/05 08:23:15;;;;;;;30.00;28.15;;;;;;;3.11;100.00;101615.63;4929666;29;20060;-75
2023/12/05 08:25:44;;;;;;;24.95;23.30;;;;;;;2.77;100.00;101616.94;4917238;29;20060;-75
2023/12/05 08:28:24;;;;;;;40.92;38.53;;;;;;;1.76;100.00;101618.44;4921233;29;20059;-75
2023/12/05 08:30:51;;;;;;;34.42;32.42;;;;;;;1.84;100.00;101616.00;4916877;29;20463;-75
2023/12/05 08:33:19;;;;;;;30.83;28.98;;;;;;;1.72;100.00;101615.22;4931171;29;20047;-75
2023/12/05 08:35:47;;;;;;;26.75;25.15;;;;;;;1.94;100.00;101619.53;4920521;29;20544;-75
2023/12/05 08:38:37;;;;;;;26.75;24.95;;;;;;;1.52;100.00;101605.56;4918442;29;20052;-75
2023/12/05 08:41:19;;;;;;;26.17;24.58;;;;;;;1.38;100.00;101610.13;4915321;29;20063;-75
2023/12/05 08:43:52;;;;;;;;;;;;;;;1.61;100.00;101607.44;4932247;29;20098;-75
2023/12/05 08:46:28;;;;;;;23.00;21.45;;;;;;;0.86;100.00;101609.06;4932679;29;20288;-75
2023/12/05 08:48:55;;;;;;;27.85;26.23;;;;;;;1.12;100.00;101614.00;4922235;29;20466;-75
2023/12/05 08:51:23;;;;;;;27.95;26.30;;;;;;;0.78;100.00;101621.09;4915092;29;20059;-75
2023/12/05 08:53:50;;;;;;;28.42;26.73;;;;;;;0.96;100.00;101613.56;4925435;29;20424;-72
2023/12/05 08:56:38;;;;;;;30.67;28.77;;;;;;;1.18;100.00;101618.78;4924029;29;20062;-72
2023/12/05 08:59:05;;;;;;;32.72;30.48;;;;;;;1.00;100.00;101607.13;4925352;29;20427;-72
2023/12/05 09:01:32;;;;;;;35.42;33.30;;;;;;;1.88;100.00;101612.19;4931717;29;20047;-72
2023/12/05 09:03:58;;;;;;;28.13;26.27;;;;;;;2.45;100.00;101608.25;4927664;29;20055;-72
2023/12/05 09:06:28;;;;;;;26.60;24.75;;;;;;;3.02;100.00;101613.81;4920976;29;20060;-72
2023/12/05 09:08:58;;;;;;;28.80;26.83;;;;;;;2.48;100.00;101604.50;4931819;29;20469;-72
2023/12/05 09:11:27;;;;;;;26.58;24.67;;;;;;;3.68;100.00;101603.50;4944966;29;20067;-73
2023/12/05 09:13:54;;;;;;;25.50;23.73;;;;;;;3.35;100.00;101590.78;4929931;29;20056;-72
2023/12/05 09:16:23;;;;;;;28.77;27.05;;;;;;;3.62;100.00;101587.47;4931699;29;20059;-72
2023/12/05 09:18:51;;;;;;;29.40;27.52;;;;;;;3.21;100.00;101574.50;4927507;29;20052;-73
2023/12/05 09:21:18;;;;;;;28.80;27.00;;;;;;;2.88;100.00;101583.56;4931238;29;20413;-72
2023/12/05 09:23:47;;;;;;;26.02;24.42;;;;;;;3.20;100.00;101578.06;4925278;29;20059;-72
2023/12/05 09:26:23;;;;;;;26.30;24.40;;;;;;;4.46;100.00;101584.13;4932048;29;20070;-72
2023/12/05 09:28:50;;;;;;;26.98;24.52;;;;;;;4.64;100.00;101571.84;4933460;29;20135;-72
2023/12/05 09:31:30;;;;;;;24.50;22.98;;;;;;;3.25;100.00;101561.91;4931935;29;20066;-72
2023/12/05 09:33:57;;;;;;;27.42;25.83;;;;;;;3.17;100.00;101557.34;4934316;29;20135;-73
2023/12/05 09:36:24;;;;;;;27.02;25.40;;;;;;;2.79;100.00;101552.03;4931433;29;20097;-72
2023/12/05 09:38:52;;;;;;;33.00;30.50;;;;;;;4.41;100.00;101547.72;4925836;29;20046;-72
2023/12/05 09:41:22;;;;;;;25.17;23.67;;;;;;;2.88;100.00;101536.31;4945248;29;20087;-72
2023/12/05 09:43:51;;;;;;;25.88;24.27;;;;;;;3.61;100.00;101542.00;4943888;29;20591;-72
2023/12/05 09:46:21;;;;;;;29.83;27.52;;;;;;;2.67;100.00;101548.69;4934489;29;20059;-73
2023/12/05 09:48:50;;;;;;;28.60;26.88;;;;;;;3.95;100.00;101541.50;4924501;29;20051;-75
2023/12/05 09:51:18;;;;;;;28.65;26.65;;;;;;;3.56;100.00;101538.13;4936887;29;20087;-75
2023/12/05 09:53:46;;;;;;;27.05;25.20;;;;;;;3.80;100.00;101542.94;4947152;29;20052;-76
2023/12/05 09:56:15;;;;;;;26.70;24.90;;;;;;;3.36;100.00;101538.16;4923698;29;20146;-75
2023/12/05 09:58:46;;;;;;;28.38;26.58;;;;;;;2.92;100.00;101544.75;4928953;29;20055;-75
2023/12/05 10:01:16;;;;;;;30.30;28.30;;;;;;;4.06;100.00;101551.03;4935490;29;20146;-75
2023/12/05 10:03:45;;;;;;;29.42;27.08;;;;;;;3.71;100.00;101528.00;4931633;28;20366;-75
2023/12/05 10:06:12;;;;;;;29.30;27.50;;;;;;;5.26;100.00;101516.69;4932492;29;20482;-75
2023/12/05 10:08:40;;;;;;;27.38;25.67;;;;;;;4.65;100.00;101505.06;4932267;29;20074;-75
2023/12/05 10:11:09;;;;;;;32.17;30.08;;;;;;;4.19;100.00;101511.28;4929821;29;20051;-75
2023/12/05 10:13:39;;;;;;;28.42;26.50;;;;;;;4.23;100.00;101518.72;4934740;29;20542;-75
2023/12/05 10:16:08;;;;;;;32.45;30.45;;;;;;;4.02;100.00;101520.72;4935133;29;20054;-75
2023/12/05 10:18:42;;;;;;;28.15;26.35;;;;;;;4.60;100.00;101504.72;4949981;29;20055;-76
2023/12/05 10:21:09;;;;;;;32.00;30.10;;;;;;;4.89;100.00;101501.06;4952748;29;20051;-75
2023/12/05 10:23:36;;;;;;;33.83;31.23;;;;;;;3.89;100.00;101505.28;4926969;29;20063;-75
2023/12/05 10:26:04;;;;;;;31.08;29.17;;;;;;;3.64;100.00;101493.59;4931916;29;20443;-75
2023/12/05 10:28:32;;;;;;;28.27;26.48;;;;;;;3.42;100.00;101490.31;4926252;29;20501;-75
2023/12/05 10:31:13;;;;;;;29.58;27.23;;;;;;;4.26;100.00;101484.25;4924515;29;20062;-75
2023/12/05 10:33:40;;;;;;;27.42;25.63;;;;;;;5.01;100.00;101486.69;4939003;29;20443;-75
2023/12/05 10:36:11;;;;;;;26.38;24.80;;;;;;;5.22;100.00;101491.66;4932412;29;20538;-75
2023/12/05 10:38:38;;;;;;;26.27;24.33;;;;;;;4.61;100.00;101489.75;4934103;29;20044;-75
2023/12/05 10:41:43;;;;;;;26.88;25.23;;;;;;;3.89;100.00;101481.63;4928737;29;20060;-75
2023/12/05 10:44:10;;;;;;;26.67;24.88;;;;;;;3.56;100.00;101468.03;4928428;29;20086;-75
2023/12/05 10:46:38;;;;;;;37.22;34.00;;;;;;;3.54;100.00;101477.88;4934453;29;20716;-75
2023/12/05 10:49:06;;;;;;;35.78;32.85;;;;;;;4.41;100.00;101466.16;4942040;29;20715;-76
2023/12/05 10:51:34;;;;;;;30.17;27.70;;;;;;;4.04;100.00;101469.66;4915297;29;20055;-75
2023/12/05 10:54:01;;;;;;;29.48;27.30;;;;;;;3.90;100.00;101462.25;4920743;29;20048;-72
2023/12/05 10:56:28;;;;;;;27.80;25.90;;;;;;;4.46;100.00;101460.47;4934635;29;20043;-76
2023/12/05 10:58:58;;;;;;;28.85;26.92;;;;;;;4.61;100.00;101456.38;4929640;29;20576;-75
2023/12/05 11:01:29;;;;;;;26.15;24.42;;;;;;;4.85;100.00;101458.41;4922847;29;20126;-73
2023/12/05 11:04:00;;;;;;;23.33;21.70;;;;;;;4.02;100.00;101476.88;4921070;29;20055;-72
2023/12/05 11:06:28;;;;;;;30.50;28.33;;;;;;;4.29;100.00;101462.91;4931035;29;20126;-73
2023/12/05 11:09:03;;;;;;;30.50;28.10;;;;;;;3.80;100.00;101458.84;4933907;29;20062;-75
2023/12/05 11:11:31;;;;;;;27.05;24.75;;;;;;;4.45;100.00;101449.13;4933938;29;20063;-75
2023/12/05 11:14:09;;;;;;;27.60;25.70;;;;;;;4.26;100.00;101451.84;4926440;29;20437;-74
2023/12/05 11:16:49;;;;;;;28.70;26.55;;;;;;;3.96;100.00;101460.84;4930829;29;20526;-72
2023/12/05 11:19:32;;;;;;;26.98;25.17;;;;;;;4.22;100.00;101456.59;4915125;29;20496;-72